createdAt,value
2023-01-13T00:00:38.566Z,0.30
2023-01-13T00:03:08.765Z,0.40
2023-01-13T00:05:38.836Z,0.30
2023-01-13T00:08:07.686Z,0.30
2023-01-13T00:10:36.987Z,0.30
2023-01-13T00:13:06.806Z,0.30
2023-01-13T00:15:35.712Z,0.30
2023-01-13T00:18:04.415Z,0.30
2023-01-13T00:20:34.391Z,0.40
2023-01-13T00:23:04.631Z,0.40
2023-01-13T00:25:33.935Z,0.33
2023-01-13T00:28:02.525Z,0.40
2023-01-13T00:30:31.157Z,0.33
2023-01-13T00:33:00.404Z,0.40
2023-01-13T00:35:29.091Z,0.30
2023-01-13T00:37:59.085Z,0.40
2023-01-13T00:40:27.889Z,0.33
2023-01-13T00:43:13.588Z,0.30
2023-01-13T00:45:42.197Z,0.30
2023-01-13T00:48:10.860Z,0.30
2023-01-13T00:50:39.476Z,0.50
2023-01-13T00:53:09.468Z,0.40
2023-01-13T00:55:38.086Z,0.30
2023-01-13T00:58:06.791Z,0.30
2023-01-13T01:00:35.395Z,0.30
2023-01-13T01:03:06.666Z,0.30
2023-01-13T01:05:35.274Z,0.40
2023-01-13T01:08:04.104Z,0.30
2023-01-13T01:10:34.307Z,0.30
2023-01-13T01:13:02.834Z,0.30
2023-01-13T01:15:31.473Z,0.40
2023-01-13T01:18:00.149Z,0.40
2023-01-13T01:20:28.796Z,0.30
2023-01-13T01:22:57.422Z,0.50
2023-01-13T01:25:26.060Z,0.30
2023-01-13T01:27:56.099Z,0.40
2023-01-13T01:30:24.694Z,0.30
2023-01-13T01:32:53.338Z,0.43
2023-01-13T01:35:21.986Z,0.30
2023-01-13T01:37:50.642Z,0.30
2023-01-13T01:40:19.568Z,0.30
2023-01-13T01:43:10.713Z,0.40
2023-01-13T01:45:40.694Z,0.50
2023-01-13T01:48:09.940Z,0.30
2023-01-13T01:50:40.819Z,0.40
2023-01-13T01:53:14.146Z,0.40
2023-01-13T01:55:43.656Z,0.30
2023-01-13T01:58:16.148Z,0.50
2023-01-13T02:00:46.434Z,0.37
2023-01-13T02:03:16.448Z,0.53
2023-01-13T02:05:45.345Z,0.40
2023-01-13T02:08:15.494Z,0.30
2023-01-13T02:10:47.079Z,0.37
2023-01-13T02:13:16.083Z,0.50
2023-01-13T02:15:51.588Z,0.40
2023-01-13T02:18:43.915Z,0.40
2023-01-13T02:21:33.153Z,0.37
2023-01-13T02:24:42.543Z,0.40
2023-01-13T02:27:43.956Z,0.30
2023-01-13T02:30:40.184Z,0.30
2023-01-13T02:33:29.755Z,0.43
2023-01-13T02:36:03.335Z,0.30
2023-01-13T02:38:36.786Z,0.40
2023-01-13T02:41:24.016Z,0.40
2023-01-13T02:44:10.613Z,0.50
2023-01-13T02:46:49.962Z,0.30
2023-01-13T02:49:28.883Z,0.33
2023-01-13T02:52:03.742Z,0.40
2023-01-13T02:54:34.810Z,0.40
2023-01-13T02:57:05.099Z,0.50
2023-01-13T02:59:35.205Z,0.63
2023-01-13T03:02:07.503Z,0.40
2023-01-13T03:04:51.705Z,0.50
2023-01-13T03:07:55.764Z,0.40
2023-01-13T03:10:34.998Z,0.40
2023-01-13T03:13:14.021Z,0.40
2023-01-13T03:15:55.792Z,0.50
2023-01-13T03:18:39.913Z,0.30
2023-01-13T03:21:16.584Z,0.60
2023-01-13T03:23:52.657Z,0.30
2023-01-13T03:26:27.653Z,0.33
2023-01-13T03:29:02.097Z,1.53
2023-01-13T03:31:33.323Z,0.40
2023-01-13T03:34:08.901Z,0.50
2023-01-13T03:36:40.157Z,0.50
2023-01-13T03:39:13.935Z,0.40
2023-01-13T03:41:47.709Z,0.60
2023-01-13T03:44:23.234Z,0.57
2023-01-13T03:47:00.408Z,0.70
2023-01-13T03:49:35.757Z,0.43
2023-01-13T03:52:08.583Z,0.50
2023-01-13T03:54:43.976Z,0.53
2023-01-13T03:57:16.141Z,0.80
2023-01-13T03:59:48.669Z,0.90
2023-01-13T04:02:26.897Z,0.60
2023-01-13T04:05:01.272Z,0.53
2023-01-13T04:07:40.525Z,0.70
2023-01-13T04:10:12.453Z,0.47
2023-01-13T04:13:04.983Z,0.67
2023-01-13T04:15:37.680Z,0.70
2023-01-13T04:18:25.435Z,0.80
2023-01-13T04:20:59.260Z,0.53
2023-01-13T04:23:28.150Z,0.40
2023-01-13T04:25:56.964Z,0.90
2023-01-13T04:28:25.894Z,1.03
2023-01-13T04:30:54.398Z,0.77
2023-01-13T04:33:23.213Z,0.97
2023-01-13T04:35:52.659Z,0.53
2023-01-13T04:38:23.306Z,0.67
2023-01-13T04:40:51.796Z,0.50
2023-01-13T04:43:20.207Z,0.60
2023-01-13T04:45:48.834Z,1.00
2023-01-13T04:48:17.297Z,1.03
2023-01-13T04:50:45.816Z,0.93
2023-01-13T04:53:14.324Z,0.47
2023-01-13T04:55:45.185Z,1.10
2023-01-13T04:58:13.666Z,0.70
2023-01-13T05:00:42.467Z,0.80
2023-01-13T05:03:12.432Z,0.83
2023-01-13T05:05:40.913Z,0.70
2023-01-13T05:08:10.146Z,0.77
2023-01-13T05:10:38.697Z,0.90
2023-01-13T05:13:27.421Z,0.50
2023-01-13T05:16:13.087Z,0.70
2023-01-13T05:18:41.991Z,1.07
2023-01-13T05:21:30.441Z,0.60
2023-01-13T05:24:16.035Z,0.87
2023-01-13T05:26:44.581Z,0.60
2023-01-13T05:29:14.475Z,0.50
2023-01-13T05:31:42.907Z,1.23
2023-01-13T05:34:11.420Z,0.57
2023-01-13T05:36:39.931Z,1.27
2023-01-13T05:39:08.400Z,1.20
2023-01-13T05:41:54.074Z,0.70
2023-01-13T05:44:23.914Z,0.73
2023-01-13T05:46:52.460Z,0.70
2023-01-13T05:49:20.922Z,0.60
2023-01-13T05:51:49.472Z,0.60
2023-01-13T05:54:17.975Z,0.50
2023-01-13T05:56:46.440Z,0.73
2023-01-13T05:59:14.923Z,0.70
2023-01-13T06:01:44.896Z,0.70
2023-01-13T06:04:13.380Z,0.70
2023-01-13T06:06:43.521Z,0.77
2023-01-13T06:09:12.079Z,0.70
2023-01-13T06:11:40.574Z,0.80
2023-01-13T06:14:09.331Z,0.70
2023-01-13T06:16:37.876Z,0.73
2023-01-13T06:19:09.322Z,0.60
2023-01-13T06:21:38.171Z,0.63
2023-01-13T06:24:10.692Z,0.80
2023-01-13T06:26:41.561Z,0.67
2023-01-13T06:29:10.235Z,1.27
2023-01-13T06:31:40.650Z,0.60
2023-01-13T06:34:14.084Z,0.43
2023-01-13T06:36:45.323Z,0.60
2023-01-13T06:39:16.496Z,0.73
2023-01-13T06:42:08.684Z,1.00
2023-01-13T06:44:37.213Z,0.80
2023-01-13T06:47:08.247Z,0.70
2023-01-13T06:49:38.141Z,0.80
2023-01-13T06:52:06.977Z,0.70
2023-01-13T06:54:35.852Z,1.00
2023-01-13T06:57:05.561Z,0.77
2023-01-13T06:59:35.309Z,0.63
2023-01-13T07:02:04.555Z,0.80
2023-01-13T07:04:33.212Z,0.60
2023-01-13T07:07:05.678Z,0.50
2023-01-13T07:09:34.052Z,0.60
2023-01-13T07:12:02.476Z,0.57
2023-01-13T07:14:49.189Z,0.70
2023-01-13T07:17:25.443Z,1.17
2023-01-13T07:19:54.700Z,0.73
2023-01-13T07:22:25.254Z,0.57
2023-01-13T07:24:53.611Z,1.00
2023-01-13T07:27:22.076Z,0.67
2023-01-13T07:29:50.439Z,0.77
2023-01-13T07:32:18.884Z,0.60
2023-01-13T07:34:47.377Z,0.60
2023-01-13T07:37:16.033Z,0.67
2023-01-13T07:39:46.491Z,0.90
2023-01-13T07:42:32.505Z,0.57
2023-01-13T07:45:02.614Z,0.50
2023-01-13T07:47:31.280Z,0.50
2023-01-13T07:49:59.615Z,0.40
2023-01-13T07:52:27.943Z,0.50
2023-01-13T07:54:57.762Z,0.73
2023-01-13T07:57:26.335Z,0.70
2023-01-13T07:59:55.062Z,0.50
2023-01-13T08:02:23.888Z,0.60
2023-01-13T08:04:53.658Z,0.60
2023-01-13T08:07:21.914Z,0.77
2023-01-13T08:09:50.427Z,0.57
2023-01-13T08:12:37.886Z,0.70
2023-01-13T08:15:10.077Z,0.60
2023-01-13T08:17:38.910Z,0.80
2023-01-13T08:20:09.145Z,0.77
2023-01-13T08:22:38.320Z,0.77
2023-01-13T08:25:07.843Z,0.60
2023-01-13T08:27:37.836Z,0.60
2023-01-13T08:30:07.868Z,0.60
2023-01-13T08:32:36.320Z,0.73
2023-01-13T08:35:05.044Z,1.30
2023-01-13T08:37:33.629Z,0.60
2023-01-13T08:40:02.252Z,0.90
2023-01-13T08:42:33.035Z,0.67
2023-01-13T08:45:03.296Z,0.87
2023-01-13T08:47:31.797Z,0.60
2023-01-13T08:50:00.390Z,0.70
2023-01-13T08:52:30.191Z,1.10
2023-01-13T08:54:58.748Z,1.00
2023-01-13T08:57:27.352Z,1.17
2023-01-13T08:59:56.428Z,1.10
2023-01-13T09:02:27.099Z,1.30
2023-01-13T09:04:56.091Z,0.70
2023-01-13T09:07:24.817Z,0.80
2023-01-13T09:09:53.277Z,1.13
2023-01-13T09:12:39.380Z,1.10
2023-01-13T09:15:09.152Z,1.10
2023-01-13T09:17:39.108Z,0.90
2023-01-13T09:20:08.447Z,1.23
2023-01-13T09:22:37.891Z,1.23
2023-01-13T09:25:07.200Z,1.10
2023-01-13T09:27:35.820Z,1.00
2023-01-13T09:30:04.797Z,0.80
2023-01-13T09:32:33.512Z,1.07
2023-01-13T09:35:02.796Z,1.10
2023-01-13T09:37:36.544Z,0.73
2023-01-13T09:40:07.787Z,0.80
2023-01-13T09:43:02.598Z,0.93
2023-01-13T09:45:36.263Z,1.37
2023-01-13T09:48:09.994Z,0.80
2023-01-13T09:51:01.238Z,0.87
2023-01-13T09:53:33.811Z,1.00
2023-01-13T09:56:02.417Z,1.67
2023-01-13T09:58:30.953Z,0.73
2023-01-13T10:01:10.759Z,1.33
2023-01-13T10:03:39.577Z,1.00
2023-01-13T10:06:18.736Z,0.93
2023-01-13T10:08:49.764Z,0.80
2023-01-13T10:11:38.182Z,1.10
2023-01-13T10:14:15.043Z,0.93
2023-01-13T10:16:48.532Z,0.70
2023-01-13T10:19:24.064Z,0.70
2023-01-13T10:22:19.975Z,0.80
2023-01-13T10:25:18.300Z,1.37
2023-01-13T10:27:53.132Z,1.40
2023-01-13T10:30:27.592Z,1.00
2023-01-13T10:32:59.568Z,0.77
2023-01-13T10:35:54.603Z,0.87
2023-01-13T10:38:26.356Z,1.30
2023-01-13T10:40:56.389Z,1.57
2023-01-13T10:43:25.069Z,1.13
2023-01-13T10:45:59.308Z,1.17
2023-01-13T10:48:38.820Z,1.07
2023-01-13T10:51:21.658Z,0.87
2023-01-13T10:53:55.624Z,0.70
2023-01-13T10:56:26.217Z,1.57
2023-01-13T10:59:15.961Z,1.27
2023-01-13T11:01:55.501Z,1.83
2023-01-13T11:04:36.127Z,1.60
2023-01-13T11:07:08.534Z,1.73
2023-01-13T11:09:38.568Z,2.03
2023-01-13T11:12:29.048Z,1.47
2023-01-13T11:15:01.370Z,1.37
2023-01-13T11:17:35.540Z,1.60
2023-01-13T11:20:18.853Z,1.43
2023-01-13T11:22:49.130Z,1.70
2023-01-13T11:25:31.610Z,1.30
2023-01-13T11:28:06.423Z,0.97
2023-01-13T11:30:42.589Z,2.27
2023-01-13T11:33:34.263Z,2.67
2023-01-13T11:36:09.192Z,1.97
2023-01-13T11:38:46.083Z,1.50
2023-01-13T11:41:23.768Z,1.73
2023-01-13T11:43:55.788Z,1.73
2023-01-13T11:46:28.528Z,0.97
2023-01-13T11:48:57.739Z,1.63
2023-01-13T11:51:35.155Z,1.00
2023-01-13T11:54:22.485Z,1.13
2023-01-13T11:57:10.354Z,1.57
2023-01-13T12:00:03.959Z,1.07
2023-01-13T12:02:58.083Z,0.90
2023-01-13T12:05:35.233Z,1.30
2023-01-13T12:08:17.018Z,1.10
2023-01-13T12:10:57.264Z,1.20
2023-01-13T12:13:36.916Z,1.30
2023-01-13T12:16:16.078Z,1.63
2023-01-13T12:19:17.851Z,1.57
2023-01-13T12:22:09.667Z,1.37
2023-01-13T12:24:45.522Z,1.70
2023-01-13T12:27:21.997Z,1.63
2023-01-13T12:29:58.261Z,0.73
2023-01-13T12:32:34.286Z,1.40
2023-01-13T12:35:16.723Z,1.20
2023-01-13T12:37:52.553Z,1.40
2023-01-13T12:40:29.740Z,1.33
2023-01-13T12:43:25.858Z,0.90
2023-01-13T12:46:15.488Z,1.30
2023-01-13T12:48:49.279Z,1.00
2023-01-13T12:51:26.168Z,0.93
2023-01-13T12:53:55.631Z,1.47
2023-01-13T12:56:45.435Z,1.80
2023-01-13T12:59:35.591Z,1.33
2023-01-13T13:02:37.640Z,1.40
2023-01-13T13:05:38.631Z,1.50
2023-01-13T13:08:15.452Z,1.00
2023-01-13T13:10:57.491Z,1.37
2023-01-13T13:13:40.940Z,1.03
2023-01-13T13:16:45.223Z,1.00
2023-01-13T13:19:44.159Z,1.17
2023-01-13T13:22:42.113Z,0.97
2023-01-13T13:25:26.315Z,2.23
2023-01-13T13:28:17.049Z,0.70
2023-01-13T13:30:51.480Z,1.03
2023-01-13T13:33:37.832Z,1.30
2023-01-13T13:36:21.228Z,0.97
2023-01-13T13:39:23.405Z,1.27
2023-01-13T13:42:12.632Z,1.00
2023-01-13T13:45:01.160Z,1.03
2023-01-13T13:47:36.892Z,0.80
2023-01-13T13:50:09.253Z,1.00
2023-01-13T13:52:44.116Z,1.07
2023-01-13T13:55:19.799Z,1.40
2023-01-13T13:57:50.491Z,1.43
2023-01-13T14:00:25.927Z,1.60
2023-01-13T14:02:58.377Z,1.20
2023-01-13T14:05:28.319Z,0.93
2023-01-13T14:08:02.450Z,1.03
2023-01-13T14:10:33.777Z,0.90
2023-01-13T14:13:03.999Z,1.00
2023-01-13T14:15:35.076Z,1.30
2023-01-13T14:18:05.167Z,1.07
2023-01-13T14:20:34.600Z,1.67
2023-01-13T14:23:05.728Z,1.27
2023-01-13T14:25:39.664Z,1.30
2023-01-13T14:28:26.545Z,1.23
2023-01-13T14:30:55.920Z,1.23
2023-01-13T14:33:29.770Z,1.00
2023-01-13T14:36:20.010Z,0.83
2023-01-13T14:38:51.500Z,1.23
2023-01-13T14:41:23.692Z,1.00
2023-01-13T14:43:55.272Z,1.07
2023-01-13T14:46:25.487Z,1.67
2023-01-13T14:49:01.571Z,1.43
2023-01-13T14:51:31.226Z,1.23
2023-01-13T14:54:00.950Z,1.30
2023-01-13T14:56:44.206Z,1.20
2023-01-13T14:59:42.496Z,1.00
2023-01-13T15:02:42.708Z,1.40
2023-01-13T15:05:51.306Z,1.30
2023-01-13T15:08:35.685Z,1.07
2023-01-13T15:11:07.137Z,1.53
2023-01-13T15:13:43.347Z,1.10
2023-01-13T15:16:26.531Z,2.03
2023-01-13T15:18:55.362Z,1.00
2023-01-13T15:21:25.110Z,1.80
2023-01-13T15:23:53.541Z,1.73
2023-01-13T15:26:25.460Z,0.70
2023-01-13T15:28:55.583Z,1.43
2023-01-13T15:31:25.348Z,1.13
2023-01-13T15:33:54.211Z,1.50
2023-01-13T15:36:27.632Z,1.60
2023-01-13T15:38:57.059Z,1.00
2023-01-13T15:41:44.870Z,1.23
2023-01-13T15:44:32.181Z,1.20
2023-01-13T15:47:02.624Z,2.00
2023-01-13T15:49:36.199Z,1.57
2023-01-13T15:52:08.113Z,0.87
2023-01-13T15:54:37.232Z,1.47
2023-01-13T15:57:07.455Z,1.10
2023-01-13T15:59:37.413Z,1.77
2023-01-13T16:02:10.969Z,1.13
2023-01-13T16:04:39.315Z,1.07
2023-01-13T16:07:16.109Z,1.23
2023-01-13T16:09:47.629Z,1.13
2023-01-13T16:12:17.417Z,1.30
2023-01-13T16:14:46.213Z,0.83
2023-01-13T16:17:17.221Z,1.47
2023-01-13T16:19:47.044Z,1.80
2023-01-13T16:22:19.261Z,1.50
2023-01-13T16:24:48.388Z,1.10
2023-01-13T16:27:20.164Z,1.07
2023-01-13T16:29:49.488Z,1.10
2023-01-13T16:32:18.334Z,1.23
2023-01-13T16:34:46.961Z,1.60
2023-01-13T16:37:21.324Z,1.40
2023-01-13T16:39:49.936Z,1.37
2023-01-13T16:42:19.902Z,1.43
2023-01-13T16:44:51.984Z,1.70
2023-01-13T16:47:20.359Z,1.30
2023-01-13T16:49:48.749Z,1.20
2023-01-13T16:52:17.067Z,0.97
2023-01-13T16:54:45.428Z,1.60
2023-01-13T16:57:15.900Z,1.17
2023-01-13T16:59:46.158Z,1.90
2023-01-13T17:02:19.666Z,1.23
2023-01-13T17:04:49.231Z,1.03
2023-01-13T17:07:19.420Z,1.60
2023-01-13T17:09:47.992Z,1.93
2023-01-13T17:12:16.341Z,2.53
2023-01-13T17:14:46.152Z,1.90
2023-01-13T17:17:22.803Z,1.13
2023-01-13T17:19:51.957Z,1.37
2023-01-13T17:22:20.596Z,1.27
2023-01-13T17:24:49.248Z,1.10
2023-01-13T17:27:18.748Z,3.20
2023-01-13T17:29:48.553Z,2.93
2023-01-13T17:32:18.376Z,2.33
2023-01-13T17:34:47.280Z,2.07
2023-01-13T17:37:15.853Z,2.30
2023-01-13T17:39:46.488Z,2.20
2023-01-13T17:42:15.315Z,1.93
2023-01-13T17:44:43.682Z,2.60
2023-01-13T17:47:13.483Z,1.93
2023-01-13T17:49:41.801Z,1.90
2023-01-13T17:52:10.153Z,2.00
2023-01-13T17:54:39.903Z,1.50
2023-01-13T17:57:08.179Z,2.20
2023-01-13T17:59:36.552Z,2.27
2023-01-13T18:02:05.180Z,2.40
2023-01-13T18:04:35.269Z,2.17
2023-01-13T18:07:05.446Z,2.40
2023-01-13T18:09:34.021Z,1.73
2023-01-13T18:12:02.507Z,1.33
2023-01-13T18:14:30.953Z,2.70
2023-01-13T18:17:02.507Z,1.80
2023-01-13T18:19:48.625Z,1.53
2023-01-13T18:22:35.817Z,1.80
2023-01-13T18:25:22.145Z,2.33
2023-01-13T18:27:50.577Z,2.63
2023-01-13T18:30:19.098Z,1.97
2023-01-13T18:32:47.413Z,1.67
2023-01-13T18:35:15.955Z,1.70
2023-01-13T18:37:46.018Z,1.43
2023-01-13T18:40:15.085Z,2.23
2023-01-13T18:42:51.619Z,1.70
2023-01-13T18:45:20.588Z,1.47
2023-01-13T18:47:49.021Z,1.47
2023-01-13T18:50:18.840Z,1.60
2023-01-13T18:52:48.673Z,1.90
2023-01-13T18:55:17.208Z,1.80
2023-01-13T18:57:45.532Z,1.10
2023-01-13T19:00:17.219Z,1.50
2023-01-13T19:02:47.218Z,1.53
2023-01-13T19:05:15.981Z,1.70
2023-01-13T19:07:50.484Z,1.73
2023-01-13T19:10:21.238Z,1.60
2023-01-13T19:12:49.610Z,1.10
2023-01-13T19:15:18.621Z,1.97
2023-01-13T19:17:47.173Z,1.73
2023-01-13T19:20:15.768Z,1.30
2023-01-13T19:22:46.544Z,1.87
2023-01-13T19:25:15.194Z,1.30
2023-01-13T19:27:44.912Z,1.73
2023-01-13T19:30:14.708Z,1.70
2023-01-13T19:32:43.121Z,2.00
2023-01-13T19:35:13.128Z,2.00
2023-01-13T19:37:43.133Z,1.80
2023-01-13T19:40:14.341Z,1.00
2023-01-13T19:43:03.088Z,1.77
2023-01-13T19:45:35.044Z,1.30
2023-01-13T19:48:05.404Z,1.47
2023-01-13T19:50:38.507Z,1.53
2023-01-13T19:53:07.375Z,1.20
2023-01-13T19:55:35.798Z,1.67
2023-01-13T19:58:05.634Z,1.50
2023-01-13T20:00:36.099Z,1.97
2023-01-13T20:03:08.147Z,1.73
2023-01-13T20:05:36.665Z,1.20
2023-01-13T20:08:05.040Z,2.17
2023-01-13T20:10:33.366Z,1.90
2023-01-13T20:13:01.718Z,1.47
2023-01-13T20:15:31.520Z,1.20
2023-01-13T20:18:00.552Z,1.40
2023-01-13T20:20:28.923Z,1.40
2023-01-13T20:22:58.502Z,1.60
2023-01-13T20:25:28.752Z,1.80
2023-01-13T20:27:58.628Z,1.20
2023-01-13T20:30:27.022Z,1.67
2023-01-13T20:32:56.665Z,1.90
2023-01-13T20:35:29.600Z,1.33
2023-01-13T20:37:58.147Z,1.67
2023-01-13T20:40:26.525Z,1.80
2023-01-13T20:42:53.972Z,1.33
2023-01-13T20:45:23.403Z,1.40
2023-01-13T20:47:51.872Z,1.50
2023-01-13T20:50:21.739Z,2.10
2023-01-13T20:52:52.603Z,1.17
2023-01-13T20:55:20.883Z,1.83
2023-01-13T20:57:50.405Z,1.10
2023-01-13T21:00:19.878Z,1.40
2023-01-13T21:02:48.278Z,1.80
2023-01-13T21:05:16.773Z,2.40
2023-01-13T21:07:46.601Z,1.93
2023-01-13T21:10:14.944Z,1.57
2023-01-13T21:13:00.561Z,1.30
2023-01-13T21:15:28.839Z,1.27
2023-01-13T21:18:14.422Z,1.80
2023-01-13T21:20:42.912Z,1.60
2023-01-13T21:23:12.701Z,1.50
2023-01-13T21:25:41.171Z,1.77
2023-01-13T21:28:11.779Z,1.77
2023-01-13T21:30:40.923Z,1.33
2023-01-13T21:33:14.707Z,1.70
2023-01-13T21:35:43.070Z,1.27
2023-01-13T21:38:13.699Z,1.30
2023-01-13T21:40:42.085Z,1.93
2023-01-13T21:43:31.324Z,1.80
2023-01-13T21:46:19.550Z,3.50
2023-01-13T21:48:47.876Z,1.53
2023-01-13T21:51:16.263Z,2.03
2023-01-13T21:53:45.969Z,1.80
2023-01-13T21:56:14.285Z,1.60
2023-01-13T21:58:42.645Z,1.80
2023-01-13T22:01:11.852Z,1.97
2023-01-13T22:03:58.561Z,2.03
2023-01-13T22:06:27.398Z,1.70
2023-01-13T22:08:59.943Z,1.70
2023-01-13T22:11:28.633Z,1.97
2023-01-13T22:14:10.171Z,1.93
2023-01-13T22:16:41.806Z,1.90
2023-01-13T22:19:11.540Z,1.80
2023-01-13T22:21:40.240Z,2.37
2023-01-13T22:24:11.071Z,2.03
2023-01-13T22:26:39.497Z,1.60
2023-01-13T22:29:07.905Z,1.47
2023-01-13T22:31:36.324Z,2.27
2023-01-13T22:34:04.673Z,1.90
2023-01-13T22:36:33.133Z,1.23
2023-01-13T22:39:01.555Z,1.63
2023-01-13T22:41:31.287Z,2.00
2023-01-13T22:43:59.583Z,1.50
2023-01-13T22:46:28.024Z,1.40
2023-01-13T22:48:57.806Z,1.93
2023-01-13T22:51:26.674Z,1.97
2023-01-13T22:53:55.641Z,1.57
2023-01-13T22:56:26.156Z,1.87
2023-01-13T22:58:56.265Z,1.60
2023-01-13T23:01:25.406Z,1.30
2023-01-13T23:03:54.105Z,2.43
2023-01-13T23:06:24.935Z,1.87
2023-01-13T23:08:53.469Z,2.27
2023-01-13T23:11:23.534Z,1.90
2023-01-13T23:13:52.005Z,2.53
2023-01-13T23:16:22.632Z,1.70
2023-01-13T23:18:53.615Z,1.80
2023-01-13T23:21:24.171Z,1.60
2023-01-13T23:23:52.603Z,1.10
2023-01-13T23:26:21.843Z,1.13
2023-01-13T23:28:50.415Z,1.80
2023-01-13T23:31:22.096Z,2.30
2023-01-13T23:33:50.800Z,1.17
2023-01-13T23:36:21.535Z,3.23
2023-01-13T23:38:50.118Z,1.90
2023-01-13T23:41:20.107Z,1.80
2023-01-13T23:43:52.942Z,1.93
2023-01-13T23:46:23.143Z,1.50
2023-01-13T23:48:51.689Z,1.07
2023-01-13T23:51:21.816Z,1.30
2023-01-13T23:53:52.145Z,1.53
2023-01-13T23:56:23.085Z,1.60
2023-01-13T23:58:52.348Z,1.40
